Flight Track Log - Related Links

Times and Time Zones

All times are in EDT time to prevent confusion due to time zone crossing. See the N60GS flight status page for this flight to view local times or setup timezone preferences in your user account.

Time Position Orientation Groundspeed Altitude Reporting Facility
EDT Latitude Longitude Course Direction KTS MPH feet Rate Location/Type
Fri 02:06:22 PM 29.7761 -95.8978 181° South 174 200 1,000  Level Houston Center
Fri 02:06:53 PM 29.7531 -95.8981 181° South 180 207 1,800 1,176 Climbing Houston Center
Fri 02:08:04 PM 29.6869 -95.8686 159° South 236 272 3,000 689 Climbing Houston Center
Fri 02:08:55 PM 29.6431 -95.8386 149° Southeast 196 226 3,200 1,221 Climbing Houston Center
Fri 02:09:57 PM 29.5819 -95.8361 178° South 214 246 5,300 2,000 Climbing Houston Center
Fri 02:10:58 PM 29.5422 -95.7903 135° Southeast 206 237 7,300 2,016 Climbing Houston Center
Fri 02:11:59 PM 29.5469 -95.7247 85° East 206 237 9,400 1,971 Climbing Houston Center
Fri 02:13:15 PM 29.5594 -95.6467 80° East 202 232 11,800 1,913 Climbing Houston Center
Fri 02:14:17 PM 29.5689 -95.5886 79° East 194 223 13,800 1,742 Climbing Houston Center
Fri 02:15:19 PM 29.5769 -95.5372 80° East 178 205 15,400 1,344 Climbing Houston Center
Fri 02:16:22 PM 29.5858 -95.4833 79° East 171 197 16,600 1,056 Climbing Houston Center
Fri 02:17:24 PM 29.5956 -95.4200 80° East 185 213 17,600 1,113 Climbing Houston Center
Fri 02:18:26 PM 29.6097 -95.3339 79° East 222 255 18,900 1,113 Climbing Houston Center
Fri 02:19:28 PM 29.6217 -95.2603 79° East 232 267 19,900 968 Climbing Houston Center
Fri 02:20:30 PM 29.6356 -95.1775 79° East 246 283 20,900 1,016 Climbing Houston Center
Fri 02:21:32 PM 29.6478 -95.0942 80° East 255 293 22,000 1,065 Climbing Houston Center
Fri 02:22:34 PM 29.6608 -95.0122 80° East 260 299 23,100 1,016 Climbing Houston Center
Fri 02:23:36 PM 29.6731 -94.9311 80° East 259 298 24,100 864 Climbing Houston Center
Fri 02:24:39 PM 29.6861 -94.8467 80° East 266 306 24,900 816 Climbing Houston Center
Fri 02:25:41 PM 29.6997 -94.7603 80° East 274 315 25,800 823 Climbing Houston Center
Fri 02:26:43 PM 29.7094 -94.6722 83° East 276 318 26,600 823 Climbing Houston Center
Fri 02:27:45 PM 29.7131 -94.5650 88° East 279 321 27,500 871 Climbing Houston Center
Fri 02:28:47 PM 29.7161 -94.4744 88° East 282 325 28,400 823 Climbing Houston Center
Fri 02:29:49 PM 29.7189 -94.3833 88° East 284 327 29,200 871 Climbing Houston Center
Fri 02:30:51 PM 29.7158 -94.2950 92° East 278 320 30,200 864 Climbing Houston Center
Fri 02:31:54 PM 29.7053 -94.2089 98° East 273 314 31,000 384 Climbing Houston Center
Fri 02:32:56 PM 29.6936 -94.1033 97° East 289 333 31,000  Level Houston Center
Fri 02:33:58 PM 29.6856 -94.0025 95° East 314 361 31,000  Level Houston Center
Fri 02:35:00 PM 29.6801 -93.9039 93° East  Level FlightAware Approximate
Fri 02:36:02 PM 29.6842 -93.7911 93° East 332 382 31,000  Level Houston Center
Fri 02:37:04 PM 29.6825 -93.6622 91° East 338 389 31,000 677 Level Houston Center
Fri 02:38:06 PM 29.6825 -93.5597 90° East 324 373 32,400 1,355 Climbing Houston Center
Fri 02:39:08 PM 29.6794 -93.4703 92° East 288 331 33,800 1,200 Climbing Houston Center
Fri 02:40:11 PM 29.6783 -93.3900 91° East 259 298 34,900 576 Climbing Houston Center
Fri 02:41:13 PM 29.6781 -93.3078 90° East 258 297 35,000 48 Climbing Houston Center
Fri 02:42:15 PM 29.6756 -93.1939 91° East 295 339 35,000  Level Houston Center
Fri 02:43:17 PM 29.6750 -93.0925 90° East 314 361 35,000  Level Houston Center
Fri 02:44:19 PM 29.6731 -92.9844 91° East 335 386 35,000  Level Houston Center
Fri 02:45:21 PM 29.6717 -92.8750 91° East 344 396 35,000  Level Houston Center
Fri 02:46:23 PM 29.6692 -92.7647 91° East 346 398 35,000  Level Houston Center
Fri 02:47:25 PM 29.6681 -92.6567 91° East 340 391 35,000  Level Houston Center
Fri 02:48:28 PM 29.6650 -92.5269 92° East 339 390 35,000  Level Houston Center
Fri 02:49:30 PM 29.6628 -92.4203 91° East 336 387 35,000  Level Houston Center
Fri 02:50:32 PM 29.6778 -92.3161 81° East 331 381 35,000  Level Houston Center
Fri 02:51:34 PM 29.7050 -92.2133 73° East 336 387 35,000  Level Houston Center
Fri 02:52:36 PM 29.7331 -92.1094 73° East 339 390 35,000  Level Houston Center
Fri 02:53:38 PM 29.7667 -91.9842 73° East 342 394 35,000  Level Houston Center
Fri 02:54:40 PM 29.7947 -91.8814 73° East 340 391 35,000  Level Houston Center
Fri 02:55:42 PM 29.8214 -91.7767 74° East 342 394 35,000  Level Houston Center
Fri 02:56:45 PM 29.8497 -91.6739 72° East 339 390 35,000  Level Houston Center
Fri 02:57:47 PM 29.8764 -91.5703 73° East 338 389 35,000  Level Houston Center
Fri 02:58:49 PM 29.9086 -91.4458 73° East 338 389 35,000  Level Houston Center
Fri 02:59:51 PM 29.9364 -91.3406 73° East 342 394 35,000  Level Houston Center
Fri 03:00:53 PM 29.9647 -91.2369 72° East 342 394 35,000  Level Houston Center
Fri 03:01:55 PM 29.9917 -91.1336 73° East 339 390 35,000  Level Houston Center
Fri 03:02:57 PM 30.0189 -91.0300 73° East 338 389 35,000  Level Houston Center
Fri 03:04:00 PM 30.0442 -90.9253 74° East 339 390 35,000  Level Houston Center
Fri 03:05:02 PM 30.0775 -90.8011 73° East 339 390 35,000  Level Houston Center
Fri 03:06:04 PM 30.1033 -90.6961 74° East 340 391 35,000  Level Houston Center
Fri 03:07:06 PM 30.1297 -90.5919 74° East 340 391 35,000  Level Houston Center
Fri 03:08:08 PM 30.1572 -90.4875 73° East 340 391 35,000  Level Houston Center
Fri 03:09:10 PM 30.1839 -90.3825 74° East 341 392 35,000  Level Houston Center
Fri 03:10:12 PM 30.2103 -90.2783 74° East 339 390 35,000  Level Houston Center
Fri 03:11:14 PM 30.2411 -90.1533 74° East 337 388 35,000  Level Houston Center
Fri 03:12:17 PM 30.2672 -90.0500 74° East 338 389 35,000  Level Houston Center
Fri 03:13:19 PM 30.2922 -89.9467 74° East 336 387 35,000  Level Houston Center
Fri 03:14:21 PM 30.3194 -89.8386 74° East 345 397 35,000  Level Houston Center
Fri 03:15:23 PM 30.3447 -89.7339 74° East 342 394 35,000  Level Houston Center
Fri 03:16:25 PM 30.3744 -89.6158 74° East 347 399 35,000  Level Houston Center
Fri 03:17:27 PM 30.4003 -89.5106 74° East 344 396 35,000  Level Houston Center
Fri 03:18:29 PM 30.4258 -89.4056 74° East 341 392 35,000  Level Houston Center
Fri 03:19:31 PM 30.4567 -89.2786 74° East 342 394 35,000  Level Houston Center
Fri 03:20:34 PM 30.4814 -89.1711 75° East 347 399 35,000  Level Houston Center
Fri 03:21:36 PM 30.5061 -89.0647 75° East 344 396 35,000  Level Houston Center
Fri 03:22:38 PM 30.5328 -88.9589 74° East 344 396 35,000  Level Houston Center
Fri 03:23:40 PM 30.5592 -88.8406 75° East 347 399 35,000  Level Houston Center
Fri 03:24:42 PM 30.5847 -88.7336 74° East 348 400 35,000  Level Houston Center
Fri 03:25:44 PM 30.6114 -88.6261 74° East 348 400 35,000 -194 Level Houston Center
Fri 03:26:46 PM 30.6361 -88.5186 75° East 347 399 34,600 -968 Descending Houston Center
Fri 03:27:48 PM 30.6675 -88.3869 74° East 354 407 33,000 -1,344 Descending Houston Center
Fri 03:28:51 PM 30.6931 -88.2789 75° East 351 404 31,800 -1,200 Descending Houston Center
Fri 03:29:53 PM 30.7164 -88.1769 75° East 350 403 30,500 -1,355 Descending Houston Center
Fri 03:30:55 PM 30.7467 -88.0475 75° East 348 400 29,000 -726 Descending Houston Center
Fri 03:31:57 PM 30.7739 -87.9408 73° East 346 398 29,000  Level Houston Center
Fri 03:32:59 PM 30.7964 -87.8347 76° East 340 391 29,000  Level Houston Center
Fri 03:34:01 PM 30.8214 -87.7294 75° East 337 388 29,000  Level Houston Center
Fri 03:35:03 PM 30.8458 -87.6208 75° East 337 388 29,000  Level Houston Center
Fri 03:35:22 PM 30.8567 -87.5772 74° East 332 382 29,000  Level Jacksonville Center
Fri 03:36:22 PM 30.8814 -87.4719 75° East 332 382 29,000  Level Jacksonville Center
Fri 03:37:08 PM 30.8950 -87.4114 75° East 336 387 29,000 -444 Level Houston Center
Fri 03:38:10 PM 30.9225 -87.2850 76° East 337 388 28,200 -1,113 Descending Houston Center
Fri 03:39:12 PM 30.9481 -87.1733 75° East 353 406 26,700 -1,452 Descending Houston Center
Fri 03:40:14 PM 30.9731 -87.0558 76° East 361 415 25,200 -1,452 Descending Houston Center
Fri 03:41:16 PM 30.9975 -86.9442 76° East 357 411 23,700 -1,452 Descending Houston Center
Fri 03:42:18 PM 31.0225 -86.8342 75° East 351 404 22,200 -1,429 Descending Houston Center
Fri 03:43:22 PM 31.0461 -86.7236 76° East 339 390 20,700 -1,452 Descending Jacksonville Center
Fri 03:44:22 PM 31.0703 -86.6156 75° East 339 390 19,200 -1,850 Descending Jacksonville Center
Fri 03:45:22 PM 31.0942 -86.5047 76° East 328 377 17,000 -2,079 Descending Jacksonville Center
Fri 03:46:03 PM 31.1086 -86.4350 76° East 311 358 15,700 -1,900 Descending Jacksonville Center
Fri 03:46:22 PM 31.1178 -86.4086 68° East 318 366 15,100 -1,853 Descending Jacksonville Center
Fri 03:47:11 PM 31.1325 -86.3317 77° East 305 351 13,600 -1,900 Descending Jacksonville Center
Fri 03:48:22 PM 31.1564 -86.2158 76° East 306 352 11,300 -1,924 Descending Jacksonville Center
Fri 03:49:22 PM 31.1669 -86.1264 82° East 286 329 9,400 -1,881 Descending Jacksonville Center
Fri 03:50:20 PM 31.1797 -86.0369 80° East 282 325 7,600 -1,210 Descending Jacksonville Center
Fri 03:51:21 PM 31.1983 -85.9553 75° East 267 307 7,000 -984 Descending Jacksonville Center
Fri 03:52:22 PM 31.2256 -85.8711 69° East 257 296 5,600 -992 Descending Jacksonville Center
Fri 03:53:22 PM 31.2417 -85.7986 75° East 250 288 5,000 -300 Descending Jacksonville Center
Fri 03:54:22 PM 31.2536 -85.7383 77° East 228 262 5,000 -650 Level Jacksonville Center
Fri 03:55:22 PM 31.2678 -85.6633 78° East 228 262 3,700 -1,113 Descending Jacksonville Center
Fri 03:56:26 PM 31.2842 -85.5836 76° East 211 243 2,700 -720 Descending Jacksonville Center
Fri 03:57:27 PM 31.2747 -85.5300 102° East 184 212 2,200 -414 Descending Jacksonville Center
Fri 03:58:22 PM 31.2675 -85.4761 99° East 162 186 1,900 -466 Descending Jacksonville Center
Fri 03:59:23 PM 31.2828 -85.4378 65° Northeast 123 142 1,300 -694 Descending Jacksonville Center
Fri 04:00:23 PM 31.3119 -85.4408 355° North 111 128 500 -800 Descending Jacksonville Center
Fri 04:02:00 PM 31.3167 -85.4333 North  Level FlightAware Approximate

Login

Don't have an account? Register now (free) for customized features, flight alerts, and more!